createdAt,value
2023-01-15T00:01:30.002Z,2.30
2023-01-15T00:03:56.403Z,2.25
2023-01-15T00:06:22.658Z,2.07
2023-01-15T00:08:48.899Z,2.35
2023-01-15T00:11:15.177Z,2.35
2023-01-15T00:13:41.458Z,2.22
2023-01-15T00:16:07.770Z,2.23
2023-01-15T00:18:34.033Z,2.17
2023-01-15T00:21:00.312Z,2.35
2023-01-15T00:23:26.595Z,2.15
2023-01-15T00:25:52.856Z,2.19
2023-01-15T00:28:19.107Z,2.34
2023-01-15T00:30:45.401Z,2.56
2023-01-15T00:33:11.690Z,2.44
2023-01-15T00:35:37.936Z,2.43
2023-01-15T00:38:04.219Z,2.28
2023-01-15T00:40:30.489Z,2.14
2023-01-15T00:42:56.797Z,2.10
2023-01-15T00:45:23.069Z,2.27
2023-01-15T00:47:49.647Z,2.11
2023-01-15T00:50:15.916Z,2.13
2023-01-15T00:52:42.181Z,2.04
2023-01-15T00:55:08.476Z,2.06
2023-01-15T00:57:34.736Z,1.92
2023-01-15T01:00:00.981Z,1.99
2023-01-15T01:02:27.306Z,1.80
2023-01-15T01:04:53.580Z,1.95
2023-01-15T01:07:19.833Z,1.84
2023-01-15T01:09:46.144Z,1.74
2023-01-15T01:12:12.542Z,1.67
2023-01-15T01:14:38.825Z,1.66
2023-01-15T01:17:05.083Z,1.63
2023-01-15T01:19:31.356Z,1.45
2023-01-15T01:21:57.631Z,1.55
2023-01-15T01:24:23.920Z,1.47
2023-01-15T01:26:50.159Z,1.73
2023-01-15T01:29:16.404Z,1.50
2023-01-15T01:31:42.765Z,1.34
2023-01-15T01:34:09.041Z,1.36
2023-01-15T01:36:35.277Z,1.25
2023-01-15T01:39:01.546Z,1.09
2023-01-15T01:41:27.793Z,1.07
2023-01-15T01:43:54.149Z,1.08
2023-01-15T01:46:20.382Z,1.29
2023-01-15T01:48:46.625Z,1.22
2023-01-15T01:51:12.896Z,1.13
2023-01-15T01:53:39.149Z,1.17
2023-01-15T01:56:05.417Z,1.13
2023-01-15T01:58:31.657Z,1.20
2023-01-15T02:00:57.980Z,1.09
2023-01-15T02:03:24.269Z,1.03
2023-01-15T02:05:50.518Z,1.18
2023-01-15T02:08:16.770Z,1.16
2023-01-15T02:10:43.029Z,1.15
2023-01-15T02:13:09.292Z,1.06
2023-01-15T02:15:35.543Z,1.06
2023-01-15T02:18:01.786Z,1.02
2023-01-15T02:20:28.020Z,1.06
2023-01-15T02:22:54.262Z,1.15
2023-01-15T02:25:20.491Z,1.00
2023-01-15T02:27:46.745Z,1.02
2023-01-15T02:30:13.003Z,1.05
2023-01-15T02:32:39.259Z,0.93
2023-01-15T02:35:05.500Z,1.11
2023-01-15T02:37:31.761Z,0.98
2023-01-15T02:39:58.024Z,0.91
2023-01-15T02:42:24.299Z,1.07
2023-01-15T02:44:50.603Z,0.92
2023-01-15T02:47:16.830Z,0.88
2023-01-15T02:49:43.078Z,0.88
2023-01-15T02:52:09.431Z,0.92
2023-01-15T02:54:35.683Z,1.09
2023-01-15T02:57:01.947Z,1.10
2023-01-15T02:59:28.234Z,1.15
2023-01-15T03:01:54.620Z,1.00
2023-01-15T03:04:20.928Z,1.03
2023-01-15T03:06:47.180Z,1.13
2023-01-15T03:09:13.447Z,1.17
2023-01-15T03:11:39.710Z,1.12
2023-01-15T03:14:05.946Z,1.17
2023-01-15T03:16:32.233Z,1.16
2023-01-15T03:18:58.536Z,1.05
2023-01-15T03:21:24.816Z,1.16
2023-01-15T03:23:51.097Z,1.00
2023-01-15T03:26:17.363Z,0.94
2023-01-15T03:28:43.632Z,0.91
2023-01-15T03:31:09.906Z,0.97
2023-01-15T03:33:36.170Z,0.85
2023-01-15T03:36:02.410Z,1.01
2023-01-15T03:38:28.777Z,1.09
2023-01-15T03:40:55.036Z,1.10
2023-01-15T03:43:21.295Z,1.07
2023-01-15T03:45:47.567Z,1.04
2023-01-15T03:48:13.864Z,1.14
2023-01-15T03:50:40.120Z,1.09
2023-01-15T03:53:06.360Z,1.17
2023-01-15T03:55:32.605Z,1.15
2023-01-15T03:57:58.858Z,1.32
2023-01-15T04:00:25.134Z,1.20
2023-01-15T04:02:51.387Z,1.33
2023-01-15T04:05:17.635Z,1.15
2023-01-15T04:07:43.889Z,1.27
2023-01-15T04:10:10.149Z,1.25
2023-01-15T04:12:36.424Z,1.21
2023-01-15T04:15:02.677Z,1.48
2023-01-15T04:17:28.950Z,1.27
2023-01-15T04:19:55.222Z,1.24
2023-01-15T04:22:21.526Z,1.13
2023-01-15T04:24:47.784Z,1.25
2023-01-15T04:27:14.039Z,1.14
2023-01-15T04:29:40.273Z,1.11
2023-01-15T04:32:06.513Z,1.17
2023-01-15T04:34:32.752Z,1.21
2023-01-15T04:36:59.056Z,1.23
2023-01-15T04:39:25.313Z,1.20
2023-01-15T04:41:51.610Z,1.31
2023-01-15T04:44:17.981Z,1.17
2023-01-15T04:46:44.252Z,1.32
2023-01-15T04:49:10.500Z,1.18
2023-01-15T04:51:36.771Z,0.92
2023-01-15T04:54:03.018Z,0.95
2023-01-15T04:56:29.277Z,1.05
2023-01-15T04:58:55.531Z,1.09
2023-01-15T05:01:21.847Z,0.95
2023-01-15T05:03:48.160Z,0.86
2023-01-15T05:06:14.446Z,1.06
2023-01-15T05:08:40.760Z,1.08
2023-01-15T05:11:07.025Z,1.24
2023-01-15T05:13:33.337Z,1.08
2023-01-15T05:15:59.691Z,1.78
2023-01-15T05:18:25.960Z,0.98
2023-01-15T05:20:52.301Z,0.84
2023-01-15T05:23:18.577Z,1.10
2023-01-15T05:25:44.844Z,1.04
2023-01-15T05:28:11.106Z,1.14
2023-01-15T05:30:37.359Z,0.99
2023-01-15T05:33:03.625Z,1.04
2023-01-15T05:35:29.885Z,1.16
2023-01-15T05:37:56.149Z,1.11
2023-01-15T05:40:22.416Z,1.03
2023-01-15T05:42:48.696Z,1.04
2023-01-15T05:45:14.948Z,1.00
2023-01-15T05:47:41.197Z,1.11
2023-01-15T05:50:07.491Z,1.19
2023-01-15T05:52:33.759Z,0.98
2023-01-15T05:55:00.013Z,1.18
2023-01-15T05:57:26.266Z,1.11
2023-01-15T05:59:52.510Z,1.06
2023-01-15T06:02:18.792Z,1.06
2023-01-15T06:04:45.089Z,0.99
2023-01-15T06:07:11.335Z,0.93
2023-01-15T06:09:37.582Z,1.00
2023-01-15T06:12:03.818Z,0.92
2023-01-15T06:14:30.053Z,1.00
2023-01-15T06:16:56.291Z,1.07
2023-01-15T06:19:22.560Z,0.95
2023-01-15T06:21:48.833Z,0.97
2023-01-15T06:24:15.113Z,1.06
2023-01-15T06:26:41.373Z,0.98
2023-01-15T06:29:07.617Z,0.98
2023-01-15T06:31:33.913Z,0.91
2023-01-15T06:34:00.198Z,1.12
2023-01-15T06:36:26.464Z,1.18
2023-01-15T06:38:52.728Z,1.09
2023-01-15T06:41:18.956Z,1.22
2023-01-15T06:43:45.205Z,1.15
2023-01-15T06:46:11.495Z,1.15
2023-01-15T06:48:37.808Z,1.10
2023-01-15T06:51:04.079Z,0.99
2023-01-15T06:53:30.340Z,1.27
2023-01-15T06:55:56.631Z,1.40
2023-01-15T06:58:22.883Z,1.48
2023-01-15T07:00:49.179Z,1.52
2023-01-15T07:03:15.457Z,1.66
2023-01-15T07:05:41.722Z,1.57
2023-01-15T07:08:08.013Z,1.71
2023-01-15T07:10:34.325Z,1.70
2023-01-15T07:13:00.595Z,1.57
2023-01-15T07:15:26.859Z,1.66
2023-01-15T07:17:53.125Z,1.56
2023-01-15T07:20:19.375Z,1.77
2023-01-15T07:22:45.626Z,1.76
2023-01-15T07:25:11.911Z,1.59
2023-01-15T07:27:38.169Z,1.75
2023-01-15T07:30:04.512Z,1.80
2023-01-15T07:32:30.849Z,1.85
2023-01-15T07:34:57.085Z,1.59
2023-01-15T07:37:23.332Z,1.67
2023-01-15T07:39:49.572Z,1.69
2023-01-15T07:42:15.855Z,1.85
2023-01-15T07:44:42.120Z,1.63
2023-01-15T07:47:08.358Z,1.71
2023-01-15T07:49:34.619Z,1.85
2023-01-15T07:52:00.902Z,1.77
2023-01-15T07:54:27.147Z,1.99
2023-01-15T07:56:53.426Z,1.78
2023-01-15T07:59:19.683Z,1.85
2023-01-15T08:01:45.991Z,1.89
2023-01-15T08:04:12.336Z,1.88
2023-01-15T08:06:38.612Z,1.82
2023-01-15T08:09:04.911Z,2.11
2023-01-15T08:11:31.179Z,1.80
2023-01-15T08:13:57.455Z,1.91
2023-01-15T08:16:23.782Z,1.95
2023-01-15T08:18:50.078Z,1.98
2023-01-15T08:21:16.336Z,2.26
2023-01-15T08:23:42.630Z,1.96
2023-01-15T08:26:08.891Z,1.85
2023-01-15T08:28:35.159Z,1.91
2023-01-15T08:31:01.428Z,2.00
2023-01-15T08:33:27.672Z,1.94
2023-01-15T08:35:53.925Z,1.93
2023-01-15T08:38:20.176Z,1.60
2023-01-15T08:40:46.444Z,1.76
2023-01-15T08:43:12.719Z,1.36
2023-01-15T08:45:38.993Z,0.93
2023-01-15T08:48:05.242Z,0.60
2023-01-15T08:50:31.518Z,0.64
2023-01-15T08:52:57.793Z,0.62
2023-01-15T08:55:24.045Z,0.48
2023-01-15T08:57:50.305Z,0.56
2023-01-15T09:00:17.690Z,0.45
2023-01-15T09:02:44.092Z,0.53
2023-01-15T09:05:10.366Z,0.33
2023-01-15T09:07:36.666Z,0.44
2023-01-15T09:10:02.913Z,0.46
2023-01-15T09:12:29.146Z,0.43
2023-01-15T09:15:01.781Z,0.50
2023-01-15T09:17:28.952Z,0.45
2023-01-15T09:19:55.205Z,0.51
2023-01-15T09:22:21.444Z,0.41
2023-01-15T09:24:47.798Z,0.63
2023-01-15T09:27:14.073Z,0.30
2023-01-15T09:29:40.374Z,0.21
2023-01-15T09:32:06.624Z,0.20
2023-01-15T09:34:32.914Z,0.17
2023-01-15T09:36:59.179Z,0.16
2023-01-15T09:39:25.418Z,0.16
2023-01-15T09:41:51.692Z,0.20
2023-01-15T09:44:17.938Z,0.23
2023-01-15T09:46:44.195Z,0.16
2023-01-15T09:49:10.459Z,0.15
2023-01-15T09:51:36.697Z,0.32
2023-01-15T09:54:02.941Z,0.22
2023-01-15T09:56:29.184Z,0.19
2023-01-15T09:58:55.444Z,0.27
2023-01-15T10:01:21.802Z,0.33
2023-01-15T10:03:48.142Z,0.30
2023-01-15T10:06:14.419Z,0.34
2023-01-15T10:08:40.858Z,0.28
2023-01-15T10:11:07.099Z,0.20
2023-01-15T10:13:33.348Z,0.21
2023-01-15T10:15:59.678Z,0.19
2023-01-15T10:18:25.949Z,0.31
2023-01-15T10:20:52.213Z,0.37
2023-01-15T10:23:18.477Z,0.48
2023-01-15T10:25:44.729Z,0.48
2023-01-15T10:28:10.965Z,0.54
2023-01-15T10:30:37.200Z,0.57
2023-01-15T10:33:03.682Z,0.93
2023-01-15T10:35:29.979Z,0.90
2023-01-15T10:37:56.241Z,0.88
2023-01-15T10:40:22.478Z,0.91
2023-01-15T10:42:48.725Z,1.12
2023-01-15T10:45:14.996Z,1.02
2023-01-15T10:47:41.219Z,1.02
2023-01-15T10:50:07.492Z,1.04
2023-01-15T10:52:33.737Z,0.84
2023-01-15T10:55:00.017Z,0.75
2023-01-15T10:57:26.263Z,0.73
2023-01-15T10:59:52.516Z,0.67
2023-01-15T11:02:18.859Z,0.67
2023-01-15T11:04:45.765Z,0.70
2023-01-15T11:07:12.045Z,0.62
2023-01-15T11:09:38.303Z,0.52
2023-01-15T11:12:04.578Z,0.52
2023-01-15T11:14:30.835Z,0.45
2023-01-15T11:16:57.096Z,0.42
2023-01-15T11:19:23.347Z,0.37
2023-01-15T11:21:49.605Z,0.45
2023-01-15T11:24:15.847Z,0.45
2023-01-15T11:26:42.107Z,0.49
2023-01-15T11:29:08.377Z,0.32
2023-01-15T11:31:34.629Z,0.38
2023-01-15T11:34:00.919Z,0.52
2023-01-15T11:36:27.195Z,0.32
2023-01-15T11:38:53.469Z,0.30
2023-01-15T11:41:19.766Z,0.34
2023-01-15T11:43:46.009Z,0.23
2023-01-15T11:46:12.272Z,0.18
2023-01-15T11:48:38.562Z,0.18
2023-01-15T11:51:04.806Z,0.31
2023-01-15T11:53:31.072Z,0.35
2023-01-15T11:55:57.345Z,0.42
2023-01-15T11:58:23.589Z,0.30
2023-01-15T12:00:49.852Z,0.36
2023-01-15T12:03:16.214Z,0.25
2023-01-15T12:05:42.487Z,0.21
2023-01-15T12:08:08.793Z,0.31
2023-01-15T12:10:35.053Z,0.55
2023-01-15T12:13:01.331Z,0.85
2023-01-15T12:15:27.581Z,1.01
2023-01-15T12:17:53.832Z,0.96
2023-01-15T12:20:20.077Z,1.00
2023-01-15T12:22:46.343Z,0.82
2023-01-15T12:25:12.607Z,0.78
2023-01-15T12:27:38.887Z,0.28
2023-01-15T12:30:05.151Z,0.27
2023-01-15T12:32:31.402Z,0.19
2023-01-15T12:34:57.719Z,0.25
2023-01-15T12:37:23.972Z,0.25
2023-01-15T12:39:50.233Z,0.33
2023-01-15T12:42:16.500Z,0.33
2023-01-15T12:44:42.808Z,0.64
2023-01-15T12:47:09.082Z,0.62
2023-01-15T12:49:35.333Z,0.69
2023-01-15T12:52:01.594Z,0.70
2023-01-15T12:54:27.866Z,0.56
2023-01-15T12:56:54.116Z,0.45
2023-01-15T12:59:20.391Z,0.33
2023-01-15T13:01:46.774Z,0.37
2023-01-15T13:04:13.132Z,0.50
2023-01-15T13:06:39.378Z,0.74
2023-01-15T13:09:05.647Z,0.55
2023-01-15T13:11:31.903Z,0.60
2023-01-15T13:13:58.327Z,0.64
2023-01-15T13:16:24.700Z,0.53
2023-01-15T13:18:50.972Z,0.63
2023-01-15T13:21:17.216Z,0.48
2023-01-15T13:23:43.474Z,0.67
2023-01-15T13:26:09.736Z,0.56
2023-01-15T13:28:36.023Z,0.43
2023-01-15T13:31:02.283Z,0.41
2023-01-15T13:33:28.605Z,0.49
2023-01-15T13:35:54.875Z,0.32
2023-01-15T13:38:21.126Z,0.49
2023-01-15T13:40:47.367Z,0.61
2023-01-15T13:43:13.657Z,0.51
2023-01-15T13:45:40.028Z,0.73
2023-01-15T13:48:06.323Z,0.74
2023-01-15T13:50:32.628Z,0.76
2023-01-15T13:52:58.932Z,0.67
2023-01-15T13:55:25.184Z,0.60
2023-01-15T13:57:51.448Z,0.34
2023-01-15T14:00:17.741Z,0.22
2023-01-15T14:02:44.090Z,0.31
2023-01-15T14:05:10.376Z,0.54
2023-01-15T14:07:36.690Z,0.49
2023-01-15T14:10:02.947Z,0.37
2023-01-15T14:12:29.271Z,0.40
2023-01-15T14:14:55.556Z,0.49
2023-01-15T14:17:21.824Z,0.47
2023-01-15T14:19:48.067Z,0.38
2023-01-15T14:22:14.349Z,0.40
2023-01-15T14:24:40.629Z,0.47
2023-01-15T14:27:06.947Z,0.60
2023-01-15T14:29:33.220Z,0.68
2023-01-15T14:31:59.612Z,0.72
2023-01-15T14:34:25.968Z,0.68
2023-01-15T14:36:52.215Z,0.67
2023-01-15T14:39:18.566Z,0.55
2023-01-15T14:41:44.906Z,0.55
2023-01-15T14:44:11.149Z,0.62
2023-01-15T14:46:37.414Z,0.61
2023-01-15T14:49:03.747Z,0.93
2023-01-15T14:51:30.056Z,0.82
2023-01-15T14:53:56.373Z,0.95
2023-01-15T14:56:22.690Z,0.73
2023-01-15T14:58:49.135Z,0.99
2023-01-15T15:01:15.515Z,0.84
2023-01-15T15:03:41.862Z,0.90
2023-01-15T15:06:08.143Z,0.98
2023-01-15T15:08:34.395Z,0.54
2023-01-15T15:11:00.758Z,0.42
2023-01-15T15:13:27.039Z,0.62
2023-01-15T15:15:53.345Z,0.74
2023-01-15T15:18:19.614Z,0.56
2023-01-15T15:20:45.868Z,0.57
2023-01-15T15:23:12.111Z,0.65
2023-01-15T15:25:39.606Z,0.70
2023-01-15T15:28:06.037Z,0.71
2023-01-15T15:30:32.344Z,0.65
2023-01-15T15:32:58.635Z,0.63
2023-01-15T15:35:24.887Z,0.60
2023-01-15T15:37:51.207Z,0.73
2023-01-15T15:40:17.481Z,1.02
2023-01-15T15:42:44.791Z,0.95
2023-01-15T15:45:11.186Z,1.09
2023-01-15T15:47:37.480Z,0.74
2023-01-15T15:50:03.746Z,0.72
2023-01-15T15:52:29.996Z,0.92
2023-01-15T15:54:56.264Z,1.14
2023-01-15T15:57:22.528Z,0.93
2023-01-15T15:59:48.788Z,0.98
2023-01-15T16:02:15.331Z,1.15
2023-01-15T16:04:41.738Z,1.05
2023-01-15T16:07:07.979Z,0.82
2023-01-15T16:09:34.256Z,0.89
2023-01-15T16:12:00.510Z,1.04
2023-01-15T16:14:26.759Z,1.21
2023-01-15T16:16:53.016Z,1.27
2023-01-15T16:19:19.281Z,1.42
2023-01-15T16:21:45.691Z,1.38
2023-01-15T16:24:11.929Z,1.53
2023-01-15T16:26:38.198Z,1.56
2023-01-15T16:29:04.474Z,1.73
2023-01-15T16:31:30.744Z,1.56
2023-01-15T16:33:57.029Z,1.72
2023-01-15T16:36:23.337Z,1.82
2023-01-15T16:38:49.645Z,1.72
2023-01-15T16:41:15.917Z,1.62
2023-01-15T16:43:42.181Z,1.86
2023-01-15T16:46:08.488Z,1.73
2023-01-15T16:48:34.783Z,1.89
2023-01-15T16:51:01.120Z,2.14
2023-01-15T16:53:27.382Z,1.96
2023-01-15T16:55:53.675Z,2.12
2023-01-15T16:58:19.933Z,1.71
2023-01-15T17:00:46.227Z,1.88
2023-01-15T17:03:12.489Z,2.16
2023-01-15T17:05:38.814Z,2.25
2023-01-15T17:08:05.085Z,2.38
2023-01-15T17:10:31.446Z,2.61
2023-01-15T17:12:57.740Z,3.56
2023-01-15T17:15:24.029Z,5.00
2023-01-15T17:17:50.298Z,3.94
2023-01-15T17:20:16.656Z,3.65
2023-01-15T17:22:42.950Z,3.45
2023-01-15T17:25:09.242Z,3.33
2023-01-15T17:27:35.527Z,2.76
2023-01-15T17:30:01.806Z,2.62
2023-01-15T17:32:28.114Z,2.55
2023-01-15T17:34:54.422Z,3.15
2023-01-15T17:37:20.680Z,2.31
2023-01-15T17:39:46.958Z,1.84
2023-01-15T17:42:13.235Z,2.25
2023-01-15T17:44:39.485Z,2.34
2023-01-15T17:47:05.742Z,3.24
2023-01-15T17:49:32.005Z,3.76
2023-01-15T17:51:58.245Z,3.13
2023-01-15T17:54:24.587Z,2.25
2023-01-15T17:56:50.847Z,1.65
2023-01-15T17:59:17.100Z,1.73
2023-01-15T18:01:43.525Z,2.22
2023-01-15T18:04:09.972Z,2.69
2023-01-15T18:06:36.454Z,2.56
2023-01-15T18:09:02.832Z,2.79
2023-01-15T18:11:29.173Z,3.47
2023-01-15T18:13:55.564Z,3.89
2023-01-15T18:16:21.866Z,4.35
2023-01-15T18:18:48.187Z,6.56
2023-01-15T18:21:14.476Z,3.95
2023-01-15T18:23:40.727Z,3.27
2023-01-15T18:26:07.022Z,3.91
2023-01-15T18:28:33.289Z,3.51
2023-01-15T18:30:59.586Z,3.29
2023-01-15T18:33:25.867Z,3.49
2023-01-15T18:35:52.137Z,3.30
2023-01-15T18:38:18.390Z,2.80
2023-01-15T18:40:44.672Z,2.73
2023-01-15T18:43:10.943Z,2.99
2023-01-15T18:45:37.209Z,2.74
2023-01-15T18:48:03.504Z,2.62
2023-01-15T18:50:29.875Z,2.87
2023-01-15T18:52:56.164Z,2.79
2023-01-15T18:55:22.418Z,2.95
2023-01-15T18:57:48.693Z,2.79
2023-01-15T19:00:14.967Z,2.82
2023-01-15T19:02:41.263Z,3.29
2023-01-15T19:05:07.575Z,3.21
2023-01-15T19:07:33.838Z,3.45
2023-01-15T19:10:00.282Z,3.60
2023-01-15T19:12:26.568Z,3.81
2023-01-15T19:14:52.836Z,3.74
2023-01-15T19:17:19.115Z,3.53
2023-01-15T19:19:45.576Z,3.64
2023-01-15T19:22:11.817Z,3.73
2023-01-15T19:24:38.156Z,3.70
2023-01-15T19:27:04.472Z,3.57
2023-01-15T19:29:30.725Z,3.72
2023-01-15T19:31:56.992Z,3.81
2023-01-15T19:34:33.519Z,3.45
2023-01-15T19:37:00.301Z,3.44
2023-01-15T19:39:26.551Z,3.44
2023-01-15T19:41:52.831Z,3.45
2023-01-15T19:44:19.123Z,3.07
2023-01-15T19:46:45.479Z,2.83
2023-01-15T19:49:11.761Z,2.73
2023-01-15T19:51:38.032Z,2.97
2023-01-15T19:54:06.267Z,2.67
2023-01-15T19:56:32.709Z,2.59
2023-01-15T19:58:59.067Z,2.80
2023-01-15T20:01:25.405Z,2.93
2023-01-15T20:03:51.719Z,2.60
2023-01-15T20:06:17.975Z,2.88
2023-01-15T20:08:44.236Z,2.94
2023-01-15T20:11:10.500Z,2.49
2023-01-15T20:13:38.133Z,2.63
2023-01-15T20:16:04.599Z,3.27
2023-01-15T20:18:30.938Z,2.72
2023-01-15T20:20:57.224Z,2.67
2023-01-15T20:23:23.465Z,2.90
2023-01-15T20:25:49.721Z,2.81
2023-01-15T20:28:15.979Z,2.90
2023-01-15T20:30:42.315Z,3.47
2023-01-15T20:33:08.594Z,3.65
2023-01-15T20:35:34.918Z,3.80
2023-01-15T20:38:02.213Z,3.85
2023-01-15T20:40:28.496Z,4.00
2023-01-15T20:42:54.755Z,3.76
2023-01-15T20:45:21.023Z,4.47
2023-01-15T20:47:47.261Z,5.27
2023-01-15T20:50:15.678Z,4.01
2023-01-15T20:52:42.146Z,3.47
2023-01-15T20:55:08.410Z,3.40
2023-01-15T20:57:34.668Z,3.54
2023-01-15T21:00:03.725Z,4.00
2023-01-15T21:02:29.979Z,4.10
2023-01-15T21:04:56.246Z,4.41
2023-01-15T21:07:22.539Z,4.33
2023-01-15T21:09:48.859Z,4.22
2023-01-15T21:12:15.159Z,3.80
2023-01-15T21:14:41.448Z,3.65
2023-01-15T21:17:07.755Z,3.66
2023-01-15T21:19:34.029Z,3.41
2023-01-15T21:22:00.359Z,3.69
2023-01-15T21:24:26.645Z,3.83
2023-01-15T21:26:52.922Z,3.40
2023-01-15T21:29:19.196Z,3.25
2023-01-15T21:31:45.558Z,3.33
2023-01-15T21:34:11.846Z,3.58
2023-01-15T21:36:38.112Z,3.76
2023-01-15T21:39:04.382Z,3.81
2023-01-15T21:41:30.646Z,4.05
2023-01-15T21:43:56.960Z,3.68
2023-01-15T21:46:23.212Z,3.79
2023-01-15T21:48:49.484Z,3.64
2023-01-15T21:51:15.758Z,3.78
2023-01-15T21:53:42.009Z,4.13
2023-01-15T21:56:08.263Z,4.03
2023-01-15T21:58:34.532Z,4.23
2023-01-15T22:01:00.837Z,4.34
2023-01-15T22:03:27.185Z,4.66
2023-01-15T22:05:53.438Z,4.43
2023-01-15T22:08:19.700Z,4.54
2023-01-15T22:10:45.968Z,4.50
2023-01-15T22:13:12.220Z,4.50
2023-01-15T22:15:38.508Z,4.70
2023-01-15T22:18:04.786Z,4.83
2023-01-15T22:20:31.059Z,4.86
2023-01-15T22:22:57.372Z,5.24
2023-01-15T22:25:23.650Z,5.05
2023-01-15T22:27:49.922Z,4.77
2023-01-15T22:30:16.264Z,5.00
2023-01-15T22:32:42.524Z,4.89
2023-01-15T22:35:08.787Z,4.98
2023-01-15T22:37:35.036Z,5.18
2023-01-15T22:40:01.321Z,4.89
2023-01-15T22:42:28.051Z,4.85
2023-01-15T22:44:54.403Z,4.91
2023-01-15T22:47:20.661Z,4.89
2023-01-15T22:49:46.931Z,5.02
2023-01-15T22:52:13.208Z,4.76
2023-01-15T22:54:39.487Z,4.51
2023-01-15T22:57:05.763Z,4.75
2023-01-15T22:59:32.028Z,4.43
2023-01-15T23:01:58.451Z,4.38
2023-01-15T23:04:24.827Z,4.20
2023-01-15T23:06:51.084Z,3.99
2023-01-15T23:09:17.409Z,3.68
2023-01-15T23:11:43.662Z,3.58
2023-01-15T23:14:09.905Z,3.55
2023-01-15T23:16:36.187Z,3.62
2023-01-15T23:19:02.454Z,3.57
2023-01-15T23:21:28.727Z,3.43
2023-01-15T23:23:55.007Z,3.46
2023-01-15T23:26:21.270Z,3.42
2023-01-15T23:28:47.513Z,3.42
2023-01-15T23:31:13.831Z,3.31
2023-01-15T23:33:40.106Z,3.20
2023-01-15T23:36:06.367Z,3.34
2023-01-15T23:38:32.641Z,3.33
2023-01-15T23:40:58.910Z,3.23
2023-01-15T23:43:25.152Z,3.07
2023-01-15T23:45:51.411Z,2.96
2023-01-15T23:48:17.684Z,3.07
2023-01-15T23:50:43.950Z,3.21
2023-01-15T23:53:10.192Z,3.15
2023-01-15T23:55:36.468Z,3.07
2023-01-15T23:58:02.734Z,3.17
